createdAt,value
2018-12-13T00:00:38.806Z,50.73
2018-12-13T00:01:40.577Z,50.40
2018-12-13T00:02:42.341Z,50.94
2018-12-13T00:03:44.094Z,50.47
2018-12-13T00:04:45.893Z,50.94
2018-12-13T00:05:47.648Z,50.86
2018-12-13T00:06:49.409Z,50.95
2018-12-13T00:07:51.177Z,50.82
2018-12-13T00:08:52.927Z,51.04
2018-12-13T00:09:54.679Z,51.20
2018-12-13T00:10:56.426Z,50.81
2018-12-13T00:11:58.186Z,50.73
2018-12-13T00:12:59.953Z,51.27
2018-12-13T00:14:01.694Z,50.72
2018-12-13T00:15:03.485Z,50.60
2018-12-13T00:16:05.230Z,50.48
2018-12-13T00:17:06.986Z,50.75
2018-12-13T00:18:08.736Z,50.39
2018-12-13T00:19:10.488Z,50.68
2018-12-13T00:20:12.330Z,50.48
2018-12-13T00:21:14.252Z,50.49
2018-12-13T00:22:16.010Z,50.74
2018-12-13T00:23:17.780Z,50.19
2018-12-13T00:24:19.556Z,50.42
2018-12-13T00:25:21.326Z,50.51
2018-12-13T00:26:23.084Z,51.13
2018-12-13T00:27:24.822Z,50.80
2018-12-13T00:28:26.578Z,50.29
2018-12-13T00:29:28.944Z,50.96
2018-12-13T00:30:30.707Z,50.58
2018-12-13T00:31:32.459Z,50.61
2018-12-13T00:32:34.206Z,50.35
2018-12-13T00:33:35.954Z,50.39
2018-12-13T00:34:37.704Z,50.96
2018-12-13T00:35:39.474Z,50.42
2018-12-13T00:36:41.236Z,50.57
2018-12-13T00:37:42.996Z,51.03
2018-12-13T00:38:44.752Z,50.80
2018-12-13T00:39:46.504Z,50.74
2018-12-13T00:40:48.294Z,50.65
2018-12-13T00:41:50.040Z,50.27
2018-12-13T00:42:51.815Z,50.47
2018-12-13T00:43:53.565Z,50.40
2018-12-13T00:44:56.614Z,50.62
2018-12-13T00:45:58.388Z,50.51
2018-12-13T00:47:00.143Z,50.99
2018-12-13T00:48:01.894Z,50.21
2018-12-13T00:49:03.649Z,50.77
2018-12-13T00:50:05.437Z,50.54
2018-12-13T00:51:07.302Z,50.78
2018-12-13T00:52:09.053Z,51.01
2018-12-13T00:53:10.799Z,50.62
2018-12-13T00:54:12.550Z,50.49
2018-12-13T00:55:14.321Z,50.38
2018-12-13T00:56:16.094Z,51.09
2018-12-13T00:57:18.090Z,51.24
2018-12-13T00:58:19.835Z,50.26
2018-12-13T00:59:21.584Z,50.56
2018-12-13T01:00:23.343Z,50.85
2018-12-13T01:01:25.125Z,50.56
2018-12-13T01:02:26.882Z,50.90
2018-12-13T01:03:28.640Z,50.65
2018-12-13T01:04:30.401Z,50.38
2018-12-13T01:05:32.182Z,50.63
2018-12-13T01:06:33.956Z,50.57
2018-12-13T01:07:35.707Z,50.85
2018-12-13T01:08:37.445Z,50.75
2018-12-13T01:09:40.160Z,50.36
2018-12-13T01:10:41.911Z,50.73
2018-12-13T01:11:43.719Z,50.49
2018-12-13T01:12:45.465Z,50.19
2018-12-13T01:13:47.219Z,50.78
2018-12-13T01:14:48.969Z,50.47
2018-12-13T01:15:50.711Z,50.42
2018-12-13T01:16:52.501Z,50.14
2018-12-13T01:17:54.263Z,50.33
2018-12-13T01:18:56.035Z,49.95
2018-12-13T01:19:57.801Z,50.82
2018-12-13T01:20:59.555Z,50.45
2018-12-13T01:22:01.353Z,50.14
2018-12-13T01:23:03.119Z,50.93
2018-12-13T01:24:04.889Z,50.53
2018-12-13T01:25:06.675Z,50.50
2018-12-13T01:26:08.419Z,50.53
2018-12-13T01:27:10.215Z,50.36
2018-12-13T01:28:11.965Z,50.18
2018-12-13T01:29:13.715Z,50.90
2018-12-13T01:30:15.521Z,50.14
2018-12-13T01:31:17.341Z,50.03
2018-12-13T01:32:19.131Z,50.42
2018-12-13T01:33:20.894Z,49.89
2018-12-13T01:34:22.679Z,50.46
2018-12-13T01:35:24.458Z,50.20
2018-12-13T01:36:26.219Z,50.35
2018-12-13T01:37:27.990Z,50.71
2018-12-13T01:38:29.754Z,50.10
2018-12-13T01:39:31.522Z,50.47
2018-12-13T01:40:33.266Z,50.26
2018-12-13T01:41:35.028Z,50.26
2018-12-13T01:42:36.813Z,50.38
2018-12-13T01:43:38.567Z,50.32
2018-12-13T01:44:40.310Z,50.38
2018-12-13T01:45:42.111Z,50.71
2018-12-13T01:46:43.864Z,50.42
2018-12-13T01:47:45.610Z,49.99
2018-12-13T01:48:47.382Z,50.82
2018-12-13T01:49:49.138Z,50.35
2018-12-13T01:50:50.891Z,50.59
2018-12-13T01:51:52.656Z,50.51
2018-12-13T01:52:54.431Z,50.82
2018-12-13T01:53:56.255Z,49.89
2018-12-13T01:54:58.008Z,50.76
2018-12-13T01:55:59.766Z,50.83
2018-12-13T01:57:01.545Z,50.24
2018-12-13T01:58:03.316Z,49.91
2018-12-13T01:59:05.092Z,50.68
2018-12-13T02:00:07.112Z,49.97
2018-12-13T02:01:09.268Z,49.87
2018-12-13T02:02:11.037Z,50.17
2018-12-13T02:03:12.814Z,50.48
2018-12-13T02:04:14.566Z,50.30
2018-12-13T02:05:16.320Z,50.03
2018-12-13T02:06:18.076Z,50.37
2018-12-13T02:07:19.822Z,50.68
2018-12-13T02:08:21.599Z,50.00
2018-12-13T02:09:23.375Z,49.96
2018-12-13T02:10:25.128Z,50.32
2018-12-13T02:11:26.904Z,50.32
2018-12-13T02:12:28.663Z,50.64
2018-12-13T02:13:30.566Z,50.11
2018-12-13T02:14:32.326Z,50.09
2018-12-13T02:15:34.258Z,49.89
2018-12-13T02:16:36.010Z,50.13
2018-12-13T02:17:37.764Z,50.34
2018-12-13T02:18:39.646Z,50.18
2018-12-13T02:19:41.390Z,50.36
2018-12-13T02:20:43.157Z,50.02
2018-12-13T02:21:44.989Z,49.96
2018-12-13T02:22:46.857Z,50.33
2018-12-13T02:23:48.622Z,50.44
2018-12-13T02:24:50.401Z,50.13
2018-12-13T02:25:52.165Z,50.14
2018-12-13T02:26:53.911Z,50.50
2018-12-13T02:27:55.676Z,50.44
2018-12-13T02:28:57.878Z,49.81
2018-12-13T02:29:59.640Z,50.38
2018-12-13T02:31:01.416Z,49.85
2018-12-13T02:32:03.196Z,50.12
2018-12-13T02:33:04.966Z,50.09
2018-12-13T02:34:06.778Z,49.63
2018-12-13T02:35:08.553Z,50.34
2018-12-13T02:36:10.326Z,50.65
2018-12-13T02:37:12.080Z,50.15
2018-12-13T02:38:13.833Z,50.39
2018-12-13T02:39:15.629Z,50.29
2018-12-13T02:40:17.377Z,49.87
2018-12-13T02:41:19.136Z,50.40
2018-12-13T02:42:20.938Z,49.99
2018-12-13T02:43:22.700Z,50.01
2018-12-13T02:44:24.472Z,50.05
2018-12-13T02:45:26.225Z,49.99
2018-12-13T02:46:27.968Z,50.57
2018-12-13T02:47:29.720Z,50.39
2018-12-13T02:48:31.468Z,50.52
2018-12-13T02:49:33.236Z,50.61
2018-12-13T02:50:34.998Z,50.11
2018-12-13T02:51:36.741Z,50.04
2018-12-13T02:52:38.518Z,50.13
2018-12-13T02:53:40.278Z,50.23
2018-12-13T02:54:42.074Z,50.43
2018-12-13T02:55:43.813Z,50.28
2018-12-13T02:56:45.560Z,50.65
2018-12-13T02:57:47.324Z,49.95
2018-12-13T02:58:49.071Z,50.52
2018-12-13T02:59:50.860Z,50.83
2018-12-13T03:00:52.608Z,50.40
2018-12-13T03:01:54.349Z,50.45
2018-12-13T03:02:56.132Z,50.03
2018-12-13T03:03:57.918Z,50.14
2018-12-13T03:04:59.708Z,50.43
2018-12-13T03:06:01.472Z,50.14
2018-12-13T03:07:03.237Z,50.05
2018-12-13T03:08:04.982Z,50.12
2018-12-13T03:09:06.766Z,50.34
2018-12-13T03:10:08.537Z,50.44
2018-12-13T03:11:10.295Z,49.84
2018-12-13T03:12:12.034Z,49.94
2018-12-13T03:13:13.796Z,50.56
2018-12-13T03:14:16.126Z,50.16
2018-12-13T03:15:17.901Z,50.05
2018-12-13T03:16:20.837Z,50.16
2018-12-13T03:17:22.596Z,50.35
2018-12-13T03:18:24.352Z,50.11
2018-12-13T03:19:26.107Z,50.42
2018-12-13T03:20:27.896Z,50.83
2018-12-13T03:21:29.665Z,50.10
2018-12-13T03:22:31.420Z,50.18
2018-12-13T03:23:33.183Z,50.08
2018-12-13T03:24:34.938Z,50.31
2018-12-13T03:25:36.710Z,50.10
2018-12-13T03:26:38.466Z,50.06
2018-12-13T03:27:40.224Z,50.41
2018-12-13T03:28:41.991Z,50.07
2018-12-13T03:29:43.754Z,50.19
2018-12-13T03:30:45.540Z,50.25
2018-12-13T03:31:47.294Z,50.18
2018-12-13T03:32:49.042Z,49.98
2018-12-13T03:33:50.795Z,50.14
2018-12-13T03:34:52.540Z,50.07
2018-12-13T03:35:54.314Z,50.06
2018-12-13T03:36:56.068Z,50.12
2018-12-13T03:37:57.824Z,50.57
2018-12-13T03:38:59.585Z,49.99
2018-12-13T03:40:01.355Z,50.44
2018-12-13T03:41:03.129Z,50.53
2018-12-13T03:42:04.888Z,50.45
2018-12-13T03:43:06.629Z,50.07
2018-12-13T03:44:08.383Z,50.08
2018-12-13T03:45:10.137Z,49.91
2018-12-13T03:46:12.533Z,49.70
2018-12-13T03:47:14.293Z,50.21
2018-12-13T03:48:16.049Z,49.37
2018-12-13T03:49:19.460Z,49.99
2018-12-13T03:50:21.278Z,49.84
2018-12-13T03:51:23.108Z,50.52
2018-12-13T03:52:25.115Z,50.20
2018-12-13T03:53:26.887Z,49.84
2018-12-13T03:54:28.639Z,50.12
2018-12-13T03:55:30.397Z,50.06
2018-12-13T03:56:32.174Z,49.82
2018-12-13T03:57:33.978Z,49.76
2018-12-13T03:58:35.741Z,50.14
2018-12-13T03:59:37.515Z,49.78
2018-12-13T04:00:39.290Z,49.97
2018-12-13T04:01:41.067Z,49.58
2018-12-13T04:02:42.991Z,50.25
2018-12-13T04:03:44.783Z,49.73
2018-12-13T04:04:46.519Z,50.03
2018-12-13T04:05:48.267Z,49.73
2018-12-13T04:06:50.058Z,50.02
2018-12-13T04:07:51.815Z,50.03
2018-12-13T04:08:53.564Z,49.96
2018-12-13T04:09:55.326Z,50.08
2018-12-13T04:10:57.091Z,49.88
2018-12-13T04:11:58.867Z,49.88
2018-12-13T04:13:00.624Z,50.06
2018-12-13T04:14:02.375Z,50.21
2018-12-13T04:15:04.151Z,49.93
2018-12-13T04:16:05.906Z,50.10
2018-12-13T04:17:07.677Z,49.77
2018-12-13T04:18:09.445Z,50.13
2018-12-13T04:19:11.194Z,50.11
2018-12-13T04:20:12.943Z,49.96
2018-12-13T04:21:14.692Z,50.50
2018-12-13T04:22:16.467Z,50.38
2018-12-13T04:23:18.227Z,49.73
2018-12-13T04:24:19.985Z,49.44
2018-12-13T04:25:21.727Z,49.90
2018-12-13T04:26:23.486Z,49.58
2018-12-13T04:27:25.593Z,50.04
2018-12-13T04:28:27.364Z,49.92
2018-12-13T04:29:29.116Z,49.71
2018-12-13T04:30:37.487Z,49.58
2018-12-13T04:31:39.241Z,49.67
2018-12-13T04:32:41.029Z,49.82
2018-12-13T04:33:42.780Z,49.81
2018-12-13T04:34:44.542Z,49.46
2018-12-13T04:35:46.291Z,49.42
2018-12-13T04:36:48.053Z,49.63
2018-12-13T04:37:49.833Z,49.90
2018-12-13T04:38:51.587Z,49.90
2018-12-13T04:39:53.337Z,49.66
2018-12-13T04:40:55.091Z,49.89
2018-12-13T04:41:56.842Z,49.68
2018-12-13T04:42:58.613Z,49.62
2018-12-13T04:44:00.373Z,49.25
2018-12-13T04:45:02.135Z,49.92
2018-12-13T04:46:03.884Z,49.65
2018-12-13T04:47:05.649Z,49.89
2018-12-13T04:48:07.400Z,50.11
2018-12-13T04:49:09.163Z,49.68
2018-12-13T04:50:11.174Z,49.91
2018-12-13T04:51:12.936Z,49.66
2018-12-13T04:52:14.686Z,49.76
2018-12-13T04:53:16.475Z,49.61
2018-12-13T04:54:18.229Z,49.52
2018-12-13T04:55:20.311Z,50.12
2018-12-13T04:56:22.263Z,49.15
2018-12-13T04:57:24.066Z,49.38
2018-12-13T04:58:26.175Z,49.22
2018-12-13T04:59:27.989Z,49.78
2018-12-13T05:00:29.763Z,49.76
2018-12-13T05:01:31.521Z,49.39
2018-12-13T05:02:33.279Z,49.20
2018-12-13T05:03:35.060Z,49.72
2018-12-13T05:04:36.813Z,49.48
2018-12-13T05:05:38.575Z,49.82
2018-12-13T05:06:40.338Z,49.16
2018-12-13T05:07:42.099Z,49.19
2018-12-13T05:08:43.884Z,49.32
2018-12-13T05:09:45.657Z,49.48
2018-12-13T05:10:47.411Z,49.45
2018-12-13T05:11:49.181Z,49.73
2018-12-13T05:12:50.933Z,49.21
2018-12-13T05:13:52.695Z,49.45
2018-12-13T05:14:54.467Z,49.78
2018-12-13T05:15:56.249Z,49.49
2018-12-13T05:16:58.009Z,49.21
2018-12-13T05:17:59.774Z,49.45
2018-12-13T05:19:01.565Z,49.32
2018-12-13T05:20:03.337Z,49.44
2018-12-13T05:21:05.091Z,49.19
2018-12-13T05:22:06.845Z,49.26
2018-12-13T05:23:08.603Z,49.23
2018-12-13T05:24:10.385Z,49.55
2018-12-13T05:25:12.145Z,49.59
2018-12-13T05:26:13.897Z,49.11
2018-12-13T05:27:15.654Z,49.78
2018-12-13T05:28:17.404Z,49.48
2018-12-13T05:29:19.182Z,49.38
2018-12-13T05:30:20.945Z,50.14
2018-12-13T05:31:22.706Z,49.78
2018-12-13T05:32:24.467Z,50.18
2018-12-13T05:33:26.225Z,50.15
2018-12-13T05:34:28.363Z,49.87
2018-12-13T05:35:30.132Z,50.17
2018-12-13T05:36:31.888Z,49.89
2018-12-13T05:37:33.646Z,50.05
2018-12-13T05:38:35.410Z,49.93
2018-12-13T05:39:37.184Z,50.27
2018-12-13T05:40:38.934Z,50.08
2018-12-13T05:41:40.682Z,49.82
2018-12-13T05:42:42.446Z,50.41
2018-12-13T05:43:46.167Z,50.38
2018-12-13T05:44:47.932Z,50.23
2018-12-13T05:45:49.692Z,50.42
2018-12-13T05:46:51.444Z,50.10
2018-12-13T05:47:53.220Z,50.11
2018-12-13T05:48:54.978Z,49.46
2018-12-13T05:49:56.763Z,49.88
2018-12-13T05:50:58.521Z,50.09
2018-12-13T05:52:00.275Z,49.28
2018-12-13T05:53:02.018Z,49.13
2018-12-13T05:54:03.768Z,49.44
2018-12-13T05:55:05.548Z,49.17
2018-12-13T05:56:07.307Z,49.35
2018-12-13T05:57:09.073Z,49.16
2018-12-13T05:58:10.828Z,49.31
2018-12-13T05:59:12.586Z,49.50
2018-12-13T06:00:14.492Z,49.26
2018-12-13T06:01:16.244Z,49.43
2018-12-13T06:02:17.996Z,49.12
2018-12-13T06:03:19.751Z,49.39
2018-12-13T06:04:21.521Z,49.25
2018-12-13T06:05:23.303Z,49.88
2018-12-13T06:06:26.849Z,49.19
2018-12-13T06:07:28.664Z,49.26
2018-12-13T06:08:30.416Z,49.06
2018-12-13T06:09:32.162Z,49.03
2018-12-13T06:10:33.915Z,49.06
2018-12-13T06:11:35.661Z,48.91
2018-12-13T06:12:37.422Z,49.51
2018-12-13T06:13:39.296Z,49.31
2018-12-13T06:14:41.062Z,49.14
2018-12-13T06:15:42.833Z,49.49
2018-12-13T06:16:44.599Z,49.36
2018-12-13T06:17:46.348Z,49.12
2018-12-13T06:18:48.088Z,49.11
2018-12-13T06:19:49.836Z,49.11
2018-12-13T06:20:51.602Z,49.12
2018-12-13T06:21:53.360Z,49.16
2018-12-13T06:22:55.125Z,49.37
2018-12-13T06:23:56.884Z,49.27
2018-12-13T06:24:58.631Z,49.05
2018-12-13T06:26:00.404Z,49.21
2018-12-13T06:27:02.174Z,49.68
2018-12-13T06:28:03.934Z,49.62
2018-12-13T06:29:05.681Z,48.95
2018-12-13T06:30:07.827Z,49.74
2018-12-13T06:31:09.733Z,49.41
2018-12-13T06:32:12.233Z,49.71
2018-12-13T06:33:13.987Z,49.53
2018-12-13T06:34:15.740Z,49.64
2018-12-13T06:35:17.487Z,49.55
2018-12-13T06:36:19.261Z,49.63
2018-12-13T06:37:21.053Z,49.49
2018-12-13T06:38:22.883Z,49.73
2018-12-13T06:39:24.661Z,49.63
2018-12-13T06:40:26.417Z,49.35
2018-12-13T06:41:28.209Z,49.82
2018-12-13T06:42:29.957Z,49.48
2018-12-13T06:43:31.719Z,49.70
2018-12-13T06:44:33.503Z,50.06
2018-12-13T06:45:35.253Z,49.87
2018-12-13T06:46:37.042Z,49.85
2018-12-13T06:47:38.786Z,50.12
2018-12-13T06:48:40.529Z,50.05
2018-12-13T06:49:42.297Z,50.08
2018-12-13T06:50:44.083Z,50.43
2018-12-13T06:51:45.877Z,49.92
2018-12-13T06:52:47.627Z,50.05
2018-12-13T06:53:49.387Z,50.55
2018-12-13T06:54:51.149Z,50.20
2018-12-13T06:55:52.905Z,49.88
2018-12-13T06:56:54.704Z,49.95
2018-12-13T06:57:56.553Z,50.19
2018-12-13T06:58:58.319Z,50.00
2018-12-13T07:00:00.073Z,50.44
2018-12-13T07:01:01.827Z,50.22
2018-12-13T07:02:03.681Z,50.06
2018-12-13T07:03:05.441Z,50.09
2018-12-13T07:04:07.201Z,49.95
2018-12-13T07:05:08.947Z,50.14
2018-12-13T07:06:10.708Z,50.27
2018-12-13T07:07:12.471Z,50.21
2018-12-13T07:08:14.245Z,50.55
2018-12-13T07:09:15.999Z,50.39
2018-12-13T07:10:17.746Z,50.12
2018-12-13T07:11:19.498Z,50.48
2018-12-13T07:12:21.335Z,49.92
2018-12-13T07:13:23.098Z,50.42
2018-12-13T07:14:24.853Z,50.07
2018-12-13T07:15:26.617Z,50.62
2018-12-13T07:16:28.432Z,50.27
2018-12-13T07:17:30.282Z,49.62
2018-12-13T07:18:32.022Z,50.36
2018-12-13T07:19:33.776Z,50.29
2018-12-13T07:20:35.524Z,50.01
2018-12-13T07:21:38.225Z,50.03
2018-12-13T07:22:39.998Z,50.50
2018-12-13T07:23:41.769Z,50.29
2018-12-13T07:24:43.515Z,49.94
2018-12-13T07:25:45.272Z,50.46
2018-12-13T07:26:47.053Z,50.18
2018-12-13T07:27:48.822Z,50.54
2018-12-13T07:28:50.574Z,49.93
2018-12-13T07:29:52.336Z,49.82
2018-12-13T07:30:54.084Z,49.44
2018-12-13T07:31:55.834Z,49.32
2018-12-13T07:32:57.612Z,49.45
2018-12-13T07:33:59.374Z,49.20
2018-12-13T07:35:01.550Z,49.21
2018-12-13T07:36:03.636Z,49.07
2018-12-13T07:37:05.387Z,49.11
2018-12-13T07:38:07.170Z,49.39
2018-12-13T07:39:10.474Z,49.16
2018-12-13T07:40:12.240Z,48.95
2018-12-13T07:41:14.007Z,49.12
2018-12-13T07:42:15.797Z,48.82
2018-12-13T07:43:17.641Z,48.85
2018-12-13T07:44:19.407Z,48.64
2018-12-13T07:45:21.162Z,48.68
2018-12-13T07:46:22.920Z,48.42
2018-12-13T07:47:24.682Z,48.63
2018-12-13T07:48:26.453Z,48.48
2018-12-13T07:49:28.200Z,48.46
2018-12-13T07:50:29.962Z,48.86
2018-12-13T07:51:31.720Z,48.51
2018-12-13T07:52:33.488Z,48.11
2018-12-13T07:53:35.756Z,48.19
2018-12-13T07:54:37.727Z,48.38
2018-12-13T07:55:39.494Z,48.44
2018-12-13T07:56:41.235Z,48.28
2018-12-13T07:57:42.982Z,48.54
2018-12-13T07:58:44.750Z,48.41
2018-12-13T07:59:46.508Z,48.75
2018-12-13T08:00:48.262Z,48.52
2018-12-13T08:01:50.023Z,48.55
2018-12-13T08:02:51.782Z,48.35
2018-12-13T08:03:53.721Z,48.41
2018-12-13T08:04:55.487Z,48.60
2018-12-13T08:05:57.234Z,48.51
2018-12-13T08:06:59.000Z,48.85
2018-12-13T08:08:00.770Z,48.25
2018-12-13T08:09:02.634Z,48.52
2018-12-13T08:10:04.385Z,48.83
2018-12-13T08:11:06.150Z,48.59
2018-12-13T08:12:07.910Z,49.11
2018-12-13T08:13:09.660Z,48.67
2018-12-13T08:14:11.428Z,48.48
2018-12-13T08:15:13.192Z,48.80
2018-12-13T08:16:14.946Z,48.62
2018-12-13T08:17:16.707Z,48.83
2018-12-13T08:18:18.467Z,48.85
2018-12-13T08:19:20.232Z,48.93
2018-12-13T08:20:21.986Z,49.18
2018-12-13T08:21:23.750Z,49.12
2018-12-13T08:22:25.514Z,49.73
2018-12-13T08:23:27.376Z,49.43
2018-12-13T08:24:29.164Z,49.70
2018-12-13T08:25:31.020Z,49.24
2018-12-13T08:26:32.856Z,49.71
2018-12-13T08:27:34.629Z,49.51
2018-12-13T08:28:36.391Z,49.94
2018-12-13T08:29:38.183Z,49.88
2018-12-13T08:30:39.922Z,49.82
2018-12-13T08:31:41.681Z,49.86
2018-12-13T08:32:43.440Z,49.97
2018-12-13T08:33:45.180Z,49.89
2018-12-13T08:34:46.953Z,49.63
2018-12-13T08:35:48.705Z,49.85
2018-12-13T08:36:50.444Z,50.16
2018-12-13T08:37:52.196Z,49.77
2018-12-13T08:38:53.949Z,49.71
2018-12-13T08:39:55.746Z,50.16
2018-12-13T08:40:57.513Z,50.38
2018-12-13T08:41:59.255Z,50.15
2018-12-13T08:43:02.396Z,49.73
2018-12-13T08:44:06.132Z,49.78
2018-12-13T08:45:07.898Z,49.82
2018-12-13T08:46:11.114Z,50.20
2018-12-13T08:47:12.903Z,49.80
2018-12-13T08:48:14.644Z,50.08
2018-12-13T08:49:16.396Z,50.00
2018-12-13T08:50:18.168Z,50.25
2018-12-13T08:51:19.950Z,50.67
2018-12-13T08:52:21.705Z,49.57
2018-12-13T08:53:23.463Z,50.10
2018-12-13T08:54:25.213Z,50.08
2018-12-13T08:55:27.003Z,49.97
2018-12-13T08:56:28.768Z,50.02
2018-12-13T08:57:30.524Z,49.91
2018-12-13T08:58:32.301Z,50.33
2018-12-13T08:59:34.057Z,49.74
2018-12-13T09:00:35.826Z,50.23
2018-12-13T09:01:37.585Z,49.90
2018-12-13T09:02:39.331Z,50.04
2018-12-13T09:03:41.090Z,50.23
2018-12-13T09:04:42.840Z,50.54
2018-12-13T09:05:44.603Z,50.12
2018-12-13T09:06:47.670Z,50.34
2018-12-13T09:07:49.543Z,50.09
2018-12-13T09:08:51.309Z,49.62
2018-12-13T09:09:53.079Z,50.00
2018-12-13T09:10:54.828Z,50.23
2018-12-13T09:11:56.573Z,49.63
2018-12-13T09:12:58.331Z,50.13
2018-12-13T09:14:00.883Z,50.40
2018-12-13T09:15:02.785Z,50.05
2018-12-13T09:16:04.560Z,50.10
2018-12-13T09:17:06.318Z,49.66
2018-12-13T09:18:08.074Z,50.10
2018-12-13T09:19:09.840Z,50.42
2018-12-13T09:20:11.594Z,49.77
2018-12-13T09:21:13.351Z,49.73
2018-12-13T09:22:15.104Z,50.21
2018-12-13T09:23:16.861Z,49.96
2018-12-13T09:24:18.620Z,49.90
2018-12-13T09:25:20.490Z,49.90
2018-12-13T09:26:22.276Z,50.24
2018-12-13T09:27:24.045Z,49.83
2018-12-13T09:28:25.784Z,49.62
2018-12-13T09:29:27.556Z,49.57
2018-12-13T09:30:29.410Z,49.75
2018-12-13T09:31:31.238Z,49.67
2018-12-13T09:32:32.998Z,49.85
2018-12-13T09:33:36.364Z,49.30
2018-12-13T09:34:38.111Z,49.48
2018-12-13T09:35:39.848Z,49.24
2018-12-13T09:36:41.648Z,49.25
2018-12-13T09:37:47.500Z,49.42
2018-12-13T09:38:47.168Z,49.30
2018-12-13T09:39:48.964Z,49.19
2018-12-13T09:40:50.716Z,49.17
2018-12-13T09:41:52.496Z,49.08
2018-12-13T09:42:54.254Z,48.92
2018-12-13T09:43:55.996Z,48.64
2018-12-13T09:44:57.754Z,48.35
2018-12-13T09:45:59.512Z,49.26
2018-12-13T09:47:01.272Z,48.73
2018-12-13T09:48:03.040Z,48.98
2018-12-13T09:49:04.802Z,48.82
2018-12-13T09:50:06.564Z,48.69
2018-12-13T09:51:08.317Z,48.92
2018-12-13T09:52:10.128Z,48.82
2018-12-13T09:53:11.880Z,48.99
2018-12-13T09:54:13.628Z,48.57
2018-12-13T09:55:15.398Z,48.88
2018-12-13T09:56:17.147Z,48.64
2018-12-13T09:57:18.911Z,48.35
2018-12-13T09:58:20.665Z,48.56
2018-12-13T09:59:22.425Z,48.52
2018-12-13T10:00:24.200Z,48.44
2018-12-13T10:01:25.975Z,48.55
2018-12-13T10:02:27.757Z,48.31
2018-12-13T10:03:29.520Z,48.81
2018-12-13T10:04:31.265Z,49.23
2018-12-13T10:05:33.026Z,49.10
2018-12-13T10:06:34.835Z,48.35
2018-12-13T10:07:36.724Z,48.82
2018-12-13T10:08:38.483Z,49.16
2018-12-13T10:09:40.276Z,48.33
2018-12-13T10:10:42.049Z,48.86
2018-12-13T10:11:43.803Z,48.48
2018-12-13T10:12:45.584Z,49.07
2018-12-13T10:13:47.347Z,49.01
2018-12-13T10:14:49.100Z,48.43
2018-12-13T10:15:50.862Z,48.74
2018-12-13T10:16:52.625Z,49.11
2018-12-13T10:17:54.409Z,49.00
2018-12-13T10:18:56.177Z,49.08
2018-12-13T10:19:57.921Z,49.25
2018-12-13T10:20:59.665Z,48.54
2018-12-13T10:22:01.417Z,49.25
2018-12-13T10:23:03.216Z,49.06
2018-12-13T10:24:04.957Z,48.78
2018-12-13T10:25:06.726Z,49.42
2018-12-13T10:26:08.475Z,49.08
2018-12-13T10:27:10.242Z,48.69
2018-12-13T10:28:12.016Z,49.03
2018-12-13T10:29:15.084Z,49.16
2018-12-13T10:30:17.048Z,48.86
2018-12-13T10:31:18.812Z,48.93
2018-12-13T10:32:20.575Z,49.16
2018-12-13T10:33:22.787Z,48.59
2018-12-13T10:34:24.542Z,49.13
2018-12-13T10:35:26.320Z,48.72
2018-12-13T10:36:28.087Z,49.45
2018-12-13T10:37:29.907Z,48.49
2018-12-13T10:38:31.777Z,49.27
2018-12-13T10:39:33.533Z,49.49
2018-12-13T10:40:35.291Z,49.08
2018-12-13T10:41:37.090Z,49.04
2018-12-13T10:42:38.843Z,49.03
2018-12-13T10:43:40.617Z,49.54
2018-12-13T10:44:42.454Z,49.31
2018-12-13T10:45:44.219Z,49.22
2018-12-13T10:46:45.976Z,49.67
2018-12-13T10:47:47.724Z,49.46
2018-12-13T10:48:49.490Z,49.58
2018-12-13T10:49:51.260Z,49.48
2018-12-13T10:50:53.005Z,49.77
2018-12-13T10:51:54.770Z,49.74
2018-12-13T10:52:56.514Z,49.38
2018-12-13T10:53:58.308Z,48.93
2018-12-13T10:55:01.032Z,49.39
2018-12-13T10:56:02.824Z,49.28
2018-12-13T10:57:04.654Z,49.14
2018-12-13T10:58:06.416Z,49.33
2018-12-13T10:59:08.208Z,49.87
2018-12-13T11:00:14.409Z,49.50
2018-12-13T11:01:21.832Z,49.24
2018-12-13T11:02:29.090Z,49.08
2018-12-13T11:03:37.302Z,49.09
2018-12-13T11:04:39.108Z,49.33
2018-12-13T11:05:40.880Z,49.83
2018-12-13T11:06:42.642Z,49.88
2018-12-13T11:07:44.408Z,49.45
2018-12-13T11:08:46.174Z,49.21
2018-12-13T11:09:47.969Z,49.47
2018-12-13T11:10:49.717Z,49.08
2018-12-13T11:11:52.094Z,49.47
2018-12-13T11:12:53.846Z,50.02
2018-12-13T11:13:55.610Z,49.51
2018-12-13T11:14:57.387Z,49.63
2018-12-13T11:15:59.157Z,49.63
2018-12-13T11:17:00.907Z,49.26
2018-12-13T11:18:02.665Z,49.69
2018-12-13T11:19:04.409Z,50.09
2018-12-13T11:20:06.197Z,50.07
2018-12-13T11:21:07.947Z,49.88
2018-12-13T11:22:09.708Z,50.38
2018-12-13T11:23:11.534Z,49.96
2018-12-13T11:24:13.349Z,50.17
2018-12-13T11:25:15.896Z,50.38
2018-12-13T11:26:17.673Z,50.21
2018-12-13T11:27:19.425Z,49.98
2018-12-13T11:28:21.178Z,50.14
2018-12-13T11:29:23.457Z,50.28
2018-12-13T11:30:25.245Z,50.20
2018-12-13T11:31:26.990Z,50.02
2018-12-13T11:32:28.755Z,50.70
2018-12-13T11:33:30.527Z,50.28
2018-12-13T11:34:32.298Z,50.53
2018-12-13T11:35:34.074Z,50.09
2018-12-13T11:36:35.836Z,49.97
2018-12-13T11:37:37.631Z,50.15
2018-12-13T11:38:39.390Z,50.27
2018-12-13T11:39:41.145Z,50.17
2018-12-13T11:40:44.405Z,50.02
2018-12-13T11:41:46.166Z,50.42
2018-12-13T11:42:47.920Z,50.21
2018-12-13T11:43:49.700Z,50.19
2018-12-13T11:44:51.468Z,50.12
2018-12-13T11:45:53.240Z,50.21
2018-12-13T11:46:54.998Z,50.16
2018-12-13T11:47:56.760Z,50.52
2018-12-13T11:48:58.524Z,50.70
2018-12-13T11:50:00.273Z,50.22
2018-12-13T11:51:02.068Z,50.00
2018-12-13T11:52:03.837Z,50.21
2018-12-13T11:53:06.750Z,50.51
2018-12-13T11:54:08.504Z,50.51
2018-12-13T11:55:11.405Z,50.85
2018-12-13T11:56:14.554Z,50.24
2018-12-13T11:57:16.329Z,50.70
2018-12-13T11:58:18.090Z,50.26
2018-12-13T11:59:19.911Z,50.35
2018-12-13T12:00:21.701Z,50.48
2018-12-13T12:01:23.490Z,50.77
2018-12-13T12:02:25.250Z,50.28
2018-12-13T12:03:27.009Z,50.06
2018-12-13T12:04:28.776Z,50.25
2018-12-13T12:05:30.552Z,50.06
2018-12-13T12:06:32.338Z,51.17
2018-12-13T12:07:34.087Z,50.03
2018-12-13T12:08:35.850Z,50.44
2018-12-13T12:09:37.601Z,50.75
2018-12-13T12:10:39.366Z,50.76
2018-12-13T12:11:41.629Z,50.34
2018-12-13T12:12:43.379Z,50.56
2018-12-13T12:13:45.124Z,50.09
2018-12-13T12:14:46.893Z,50.26
2018-12-13T12:15:48.650Z,50.61
2018-12-13T12:16:50.492Z,50.40
2018-12-13T12:17:52.321Z,50.25
2018-12-13T12:18:54.093Z,50.12
2018-12-13T12:19:55.856Z,50.37
2018-12-13T12:20:57.641Z,50.49
2018-12-13T12:21:59.423Z,50.22
2018-12-13T12:23:01.179Z,50.40
2018-12-13T12:24:02.939Z,50.23
2018-12-13T12:25:04.690Z,50.54
2018-12-13T12:26:06.432Z,50.26
2018-12-13T12:27:08.629Z,50.12
2018-12-13T12:28:10.663Z,49.80
2018-12-13T12:29:12.433Z,50.16
2018-12-13T12:30:14.214Z,49.99
2018-12-13T12:31:15.967Z,49.31
2018-12-13T12:32:17.749Z,49.50
2018-12-13T12:33:19.503Z,49.91
2018-12-13T12:34:21.269Z,49.85
2018-12-13T12:35:23.034Z,49.48
2018-12-13T12:36:24.814Z,49.53
2018-12-13T12:37:26.637Z,49.55
2018-12-13T12:38:28.382Z,48.88
2018-12-13T12:39:30.143Z,49.35
2018-12-13T12:40:32.267Z,49.32
2018-12-13T12:41:34.041Z,49.02
2018-12-13T12:42:35.824Z,49.21
2018-12-13T12:43:37.574Z,49.18
2018-12-13T12:44:41.594Z,49.24
2018-12-13T12:45:43.346Z,49.05
2018-12-13T12:46:45.092Z,48.99
2018-12-13T12:47:46.902Z,48.96
2018-12-13T12:48:48.649Z,49.23
2018-12-13T12:49:50.411Z,48.83
2018-12-13T12:50:52.173Z,48.93
2018-12-13T12:51:53.926Z,49.36
2018-12-13T12:52:55.718Z,49.18
2018-12-13T12:53:57.472Z,49.11
2018-12-13T12:54:59.238Z,48.94
2018-12-13T12:56:01.008Z,49.08
2018-12-13T12:57:02.790Z,49.10
2018-12-13T12:58:04.585Z,49.13
2018-12-13T12:59:06.333Z,49.06
2018-12-13T13:00:08.182Z,49.31
2018-12-13T13:01:09.954Z,49.40
2018-12-13T13:02:11.720Z,48.61
2018-12-13T13:03:14.315Z,48.64
2018-12-13T13:04:16.159Z,49.27
2018-12-13T13:05:17.985Z,48.98
2018-12-13T13:06:19.743Z,49.39
2018-12-13T13:07:21.528Z,49.14
2018-12-13T13:08:23.927Z,49.55
2018-12-13T13:09:26.784Z,48.95
2018-12-13T13:10:28.545Z,48.74
2018-12-13T13:11:30.306Z,49.11
2018-12-13T13:12:32.061Z,49.81
2018-12-13T13:13:33.842Z,49.12
2018-12-13T13:14:35.596Z,49.75
2018-12-13T13:15:37.364Z,49.51
2018-12-13T13:16:39.118Z,49.48